This is the latest recevied weather packets stored in our database for station/object AI4ZL. If no packets are shown the sender has not sent any weather packets the latest 10 day(s).
| Time | Temp. | Humidity | Pressure | Rain* | Wind** | Luminosity | Snow |
|---|---|---|---|---|---|---|---|
| 1777531235 | 11.11° C | 77% | 1018.3 hPa | 0 mm | - | 0 W/m² | - |
| 1777530641 | 11.67° C | 76% | 1018.3 hPa | 0 mm | - | 0 W/m² | - |
| 1777522225 | 13.89° C | 71% | 1018 hPa | 0 mm | - | 0 W/m² | - |
| 1777521630 | 13.89° C | 70% | 1017.9 hPa | 0 mm | - | 0 W/m² | - |
| 1777516819 | 15° C | 67% | 1018.1 hPa | 0 mm | - | 0 W/m² | - |
| 1777515669 | 15° C | 68% | 1017.7 hPa | 0 mm | - | 0 W/m² | - |
| 1777513231 | 15.56° C | 66% | 1017.2 hPa | 0 mm | - | 0 W/m² | - |
| 1777509627 | 16.11° C | 65% | 1015.9 hPa | 0 mm | - | 2 W/m² | - |
| 1777503031 | 21.11° C | 55% | 1015.6 hPa | 0 mm | - | 173 W/m² | - |
| 1777501824 | 20.56° C | 55% | 1015.4 hPa | 0 mm | - | 259 W/m² | - |
| 1777500022 | 20.56° C | 55% | 1015.7 hPa | 0 mm | - | 326 W/m² | - |
| 1777498832 | 21.11° C | 53% | 1015.7 hPa | 0 mm | - | 418 W/m² | - |
| 1777497625 | 20.56° C | 54% | 1015.7 hPa | 0 mm | - | 455 W/m² | - |
| 1777494654 | 21.11° C | 57% | 1016 hPa | 0 mm | - | 558 W/m² | - |
| 1777494042 | 21.11° C | 59% | 1015.8 hPa | 0 mm | - | 278 W/m² | - |
| 1777484453 | 20° C | 70% | 1017 hPa | 0 mm | - | 718 W/m² | - |
| 1777483225 | 19.44° C | 70% | 1017.1 hPa | 0 mm | - | 591 W/m² | - |
| 1777481423 | 18.89° C | 74% | 1017.2 hPa | 0 mm | - | 549 W/m² | - |
| 1777471223 | 13.89° C | 99% | 1015.9 hPa | 0 mm | - | 173 W/m² | - |
| 1777470033 | 13.33° C | 99% | 1015.7 hPa | 0 mm | - | 45 W/m² | - |
| 1777459832 | 15.56° C | 99% | 1013.3 hPa | 0 mm | - | 0 W/m² | - |
| 1777459220 | 15.56° C | 99% | 1012.9 hPa | 0.25 mm | - | 0 W/m² | - |
| 1777456245 | 16.67° C | 99% | 1012.6 hPa | 2.03 mm | - | 0 W/m² | - |
| 1777452623 | 17.78° C | 99% | 1011.9 hPa | 2.54 mm | - | 0 W/m² | - |
| 1777450821 | 17.78° C | 99% | 1011.4 hPa | 1.02 mm | - | 0 W/m² | - |
* Rain latest hour (hover to see other rain measurements)
** Current wind speed in m/s (hover to see current wind gust speed)